Time;durP1;ratioP1;P1;durP2;ratioP2;P2;SDS_P1;SDS_P2;PMS_P1;PMS_P2;Temp;Humidity;BMP_temperature;BMP_pressure;BME280_temperature;BME280_humidity;BME280_pressure;Samples;Min_cycle;Max_cycle;Signal;HPM_P1;HPM_P2
2023/08/10 00:00:44;;;;;;;1.30;1.20;;;;;;;19.19;87.02;99195.03;5108464;28;20546;-58
2023/08/10 00:03:11;;;;;;;1.37;1.23;;;;;;;19.09;87.99;99202.19;5108208;28;20201;-57
2023/08/10 00:05:38;;;;;;;1.87;1.40;;;;;;;19.06;88.18;99194.75;5108076;28;20528;-57
2023/08/10 00:08:05;;;;;;;1.43;1.30;;;;;;;19.04;88.09;99194.09;5108297;28;20194;-57
2023/08/10 00:10:32;;;;;;;4.53;1.50;;;;;;;19.01;89.02;99194.41;5108148;28;20644;-57
2023/08/10 00:12:59;;;;;;;1.33;1.23;;;;;;;18.98;89.80;99199.94;5108165;28;20610;-58
2023/08/10 00:15:26;;;;;;;2.97;1.40;;;;;;;18.96;90.26;99205.25;5108096;28;20194;-57
2023/08/10 00:17:54;;;;;;;1.57;1.47;;;;;;;18.94;90.44;99209.00;5108041;28;20234;-57
2023/08/10 00:20:21;;;;;;;1.80;1.50;;;;;;;18.93;91.19;99215.13;5108261;28;20229;-57
2023/08/10 00:22:48;;;;;;;1.87;1.47;;;;;;;18.97;92.01;99216.44;5107963;28;20627;-58
2023/08/10 00:25:15;;;;;;;1.43;1.20;;;;;;;19.00;91.98;99219.53;5108156;28;20409;-57
2023/08/10 00:27:42;;;;;;;1.73;1.20;;;;;;;19.02;92.00;99216.75;5108052;28;20204;-57
2023/08/10 00:30:09;;;;;;;1.93;1.33;;;;;;;19.01;90.60;99209.97;5108344;28;20209;-57
2023/08/10 00:32:36;;;;;;;1.83;1.40;;;;;;;18.98;91.06;99211.09;5107790;28;20223;-57
2023/08/10 00:35:05;;;;;;;2.97;1.70;;;;;;;18.93;92.23;99215.13;5108012;28;20296;-57
2023/08/10 00:37:32;;;;;;;2.90;1.30;;;;;;;18.88;92.29;99207.03;5107899;28;20295;-57
2023/08/10 00:39:59;;;;;;;1.83;1.10;;;;;;;18.88;91.95;99204.44;5108912;28;20205;-57
2023/08/10 00:42:27;;;;;;;1.30;1.20;;;;;;;18.82;93.03;99210.28;5112029;28;20203;-57
2023/08/10 00:44:54;;;;;;;3.10;1.40;;;;;;;18.81;93.15;99199.09;5112183;28;20668;-57
2023/08/10 00:47:21;;;;;;;1.67;1.40;;;;;;;18.78;94.04;99200.22;5111818;28;20204;-57
2023/08/10 00:49:48;;;;;;;1.97;1.10;;;;;;;18.74;95.62;99193.75;5112005;28;20235;-57
2023/08/10 00:52:17;;;;;;;2.53;1.30;;;;;;;18.65;95.67;99192.09;5111735;28;20201;-57
2023/08/10 00:54:44;;;;;;;2.20;1.30;;;;;;;18.66;95.78;99192.91;5110752;28;20203;-57
2023/08/10 00:57:11;;;;;;;2.10;1.27;;;;;;;18.62;95.55;99187.25;5110170;28;20670;-58
2023/08/10 00:59:39;;;;;;;1.67;1.50;;;;;;;18.60;96.48;99191.78;5110498;28;20589;-58
2023/08/10 01:02:07;;;;;;;1.40;1.30;;;;;;;18.54;96.85;99195.00;5111725;28;20205;-58
2023/08/10 01:04:33;;;;;;;1.60;1.20;;;;;;;18.55;95.70;99194.03;5111342;28;20200;-58
2023/08/10 01:07:08;;;;;;;1.97;1.30;;;;;;;18.56;96.94;99190.47;5111252;28;20195;-58
2023/08/10 01:09:44;;;;;;;1.73;1.40;;;;;;;18.56;97.03;99190.47;5111508;28;20201;-57
2023/08/10 01:12:20;;;;;;;1.37;1.23;;;;;;;18.50;97.25;99188.50;5111629;28;20199;-57
2023/08/10 01:15:02;;;;;;;2.53;1.20;;;;;;;18.49;97.97;99186.91;5111573;28;20248;-57
2023/08/10 01:17:32;;;;;;;1.67;1.20;;;;;;;18.49;98.33;99194.66;5111643;28;20235;-57
2023/08/10 01:20:03;;;;;;;2.00;1.40;;;;;;;18.47;98.69;99191.41;5111162;28;20334;-57
2023/08/10 01:22:48;;;;;;;3.27;1.40;;;;;;;18.48;99.40;99193.06;5111332;28;20655;-57
2023/08/10 01:25:19;;;;;;;1.30;1.20;;;;;;;18.50;98.85;99185.91;5111096;28;20688;-57
2023/08/10 01:27:47;;;;;;;1.73;1.17;;;;;;;18.49;98.92;99179.13;5111134;27;20576;-57
2023/08/10 01:30:14;;;;;;;1.40;1.30;;;;;;;18.50;98.66;99175.56;5111082;28;20204;-58
2023/08/10 01:32:41;;;;;;;4.37;1.40;;;;;;;18.48;99.30;99169.75;5110957;28;20693;-58
2023/08/10 01:35:10;;;;;;;2.30;1.43;;;;;;;18.52;98.55;99178.81;5110873;28;20204;-58
2023/08/10 01:37:37;;;;;;;3.10;1.50;;;;;;;18.50;98.77;99172.97;5111089;28;20206;-57
2023/08/10 01:40:07;;;;;;;1.70;1.40;;;;;;;18.54;98.67;99175.09;5110955;27;20202;-58
2023/08/10 01:42:36;;;;;;;1.73;1.20;;;;;;;18.55;98.50;99174.09;5110969;28;20216;-57
2023/08/10 01:45:04;;;;;;;1.67;1.33;;;;;;;18.63;97.68;99177.69;5110914;28;20220;-57
2023/08/10 01:47:37;;;;;;;1.77;1.37;;;;;;;18.67;97.75;99177.19;5110674;28;20200;-57
2023/08/10 01:50:07;;;;;;;2.47;1.30;;;;;;;18.65;97.58;99171.38;5110500;28;20682;-57
2023/08/10 01:52:38;;;;;;;1.77;1.30;;;;;;;18.64;97.90;99167.16;5109569;28;20669;-57
2023/08/10 01:55:07;;;;;;;2.33;1.40;;;;;;;18.64;98.71;99169.75;5110449;28;20554;-58
2023/08/10 01:57:36;;;;;;;1.27;1.17;;;;;;;18.65;98.48;99170.59;5110755;28;20194;-58
2023/08/10 02:00:06;;;;;;;1.30;1.20;;;;;;;18.67;97.91;99172.03;5110640;28;20285;-58
2023/08/10 02:02:33;;;;;;;1.70;1.20;;;;;;;18.66;98.34;99170.41;5110492;28;20334;-58
2023/08/10 02:05:00;;;;;;;4.30;1.33;;;;;;;18.63;98.08;99169.94;5110528;28;20691;-58
2023/08/10 02:07:27;;;;;;;1.97;1.50;;;;;;;18.68;98.12;99168.47;5110110;28;20641;-58
2023/08/10 02:09:54;;;;;;;1.60;1.40;;;;;;;18.69;98.28;99171.88;5110431;28;20216;-58
2023/08/10 02:12:20;;;;;;;1.87;1.27;;;;;;;18.66;98.17;99174.78;5110189;28;20468;-58
2023/08/10 02:14:49;;;;;;;1.30;1.20;;;;;;;18.65;97.87;99171.38;5110120;28;20301;-58
2023/08/10 02:17:16;;;;;;;1.57;1.30;;;;;;;18.65;97.88;99173.97;5110165;28;20206;-57
2023/08/10 02:19:43;;;;;;;1.53;1.30;;;;;;;18.64;97.76;99169.75;5110018;28;20236;-58
2023/08/10 02:22:10;;;;;;;2.47;1.23;;;;;;;18.65;98.06;99165.41;5109947;28;20208;-57
2023/08/10 02:24:38;;;;;;;1.30;1.13;;;;;;;18.67;98.64;99166.84;5110107;28;20195;-58
2023/08/10 02:27:04;;;;;;;1.30;1.13;;;;;;;18.66;99.07;99175.59;5110301;28;20300;-58
2023/08/10 02:29:31;;;;;;;1.60;1.50;;;;;;;18.67;99.49;99182.38;5109824;28;20204;-57
2023/08/10 02:32:00;;;;;;;1.80;1.33;;;;;;;18.69;99.30;99185.63;5109982;28;20213;-58
2023/08/10 02:34:27;;;;;;;1.20;1.10;;;;;;;18.72;98.87;99190.47;5109963;28;20517;-57
2023/08/10 02:36:54;;;;;;;3.03;1.40;;;;;;;18.72;98.77;99185.31;5109977;28;20197;-58
2023/08/10 02:39:21;;;;;;;2.00;1.40;;;;;;;18.70;99.45;99182.09;5109658;28;20613;-58
2023/08/10 02:41:48;;;;;;;1.30;1.20;;;;;;;18.71;99.24;99185.47;5109605;28;20222;-57
2023/08/10 02:44:15;;;;;;;1.87;1.43;;;;;;;18.71;99.34;99191.47;5109921;28;20269;-57
2023/08/10 02:46:42;;;;;;;2.30;1.30;;;;;;;18.66;99.52;99201.50;5109470;28;20618;-57
2023/08/10 02:49:10;;;;;;;1.50;1.40;;;;;;;18.66;100.00;99201.50;5109412;28;20218;-57
2023/08/10 02:51:38;;;;;;;1.20;1.10;;;;;;;18.65;99.95;99194.69;5109566;28;20615;-57
2023/08/10 02:54:05;;;;;;;1.40;1.30;;;;;;;18.59;100.00;99203.09;5109471;28;20208;-58
2023/08/10 02:56:32;;;;;;;1.63;1.30;;;;;;;18.56;100.00;99206.03;5109361;28;20205;-58
2023/08/10 02:58:59;;;;;;;1.40;1.30;;;;;;;18.54;99.46;99202.78;5109570;28;20231;-58
2023/08/10 03:01:26;;;;;;;1.27;1.17;;;;;;;18.53;100.00;99203.75;5109597;28;20574;-57
2023/08/10 03:03:53;;;;;;;2.70;1.53;;;;;;;18.52;100.00;99210.69;5109037;28;20690;-58
2023/08/10 03:06:21;;;;;;;1.37;1.17;;;;;;;18.50;100.00;99206.63;5109128;28;20202;-58
2023/08/10 03:08:48;;;;;;;1.73;1.20;;;;;;;18.45;100.00;99203.72;5109020;28;20201;-58
2023/08/10 03:11:15;;;;;;;1.30;1.20;;;;;;;18.50;100.00;99210.06;5109336;28;20202;-58
2023/08/10 03:13:41;;;;;;;1.30;1.20;;;;;;;18.52;100.00;99210.69;5109130;28;20200;-58
2023/08/10 03:16:09;;;;;;;1.27;1.10;;;;;;;18.53;100.00;99209.72;5108908;28;20199;-58
2023/08/10 03:18:35;;;;;;;2.37;1.30;;;;;;;18.50;99.93;99210.06;5107830;28;20235;-58
2023/08/10 03:21:02;;;;;;;2.20;1.30;;;;;;;18.46;100.00;99210.50;5107396;28;20667;-58
2023/08/10 03:23:31;;;;;;;2.47;1.37;;;;;;;18.46;99.83;99215.69;5107737;28;20196;-57
2023/08/10 03:25:57;;;;;;;1.60;1.30;;;;;;;18.44;100.00;99217.63;5108871;28;20689;-58
2023/08/10 03:28:24;;;;;;;1.60;1.10;;;;;;;18.44;99.80;99217.63;5109075;28;20199;-57
2023/08/10 03:30:51;;;;;;;2.37;1.40;;;;;;;18.44;100.00;99222.78;5108777;28;20209;-57
2023/08/10 03:33:18;;;;;;;1.30;1.13;;;;;;;18.42;100.00;99220.38;5108697;28;20252;-57
2023/08/10 03:35:45;;;;;;;1.57;1.30;;;;;;;18.40;100.00;99221.50;5108854;28;20210;-57
2023/08/10 03:38:12;;;;;;;1.70;1.50;;;;;;;18.43;100.00;99216.00;5108339;28;20211;-58
2023/08/10 03:40:40;;;;;;;1.40;1.30;;;;;;;18.41;100.00;99217.94;5108650;28;20215;-57
2023/08/10 03:43:07;;;;;;;1.50;1.20;;;;;;;18.41;100.00;99218.75;5108405;28;20205;-57
2023/08/10 03:45:34;;;;;;;1.50;1.30;;;;;;;18.38;100.00;99223.44;5108514;28;20193;-57
2023/08/10 03:48:01;;;;;;;1.80;1.50;;;;;;;18.37;100.00;99227.81;5108400;28;20211;-58
2023/08/10 03:50:27;;;;;;;2.80;1.50;;;;;;;18.37;100.00;99227.00;5108433;28;20204;-57
2023/08/10 03:52:54;;;;;;;2.30;1.40;;;;;;;18.32;100.00;99227.44;5108377;28;20203;-57
2023/08/10 03:55:21;;;;;;;1.97;1.60;;;;;;;18.31;100.00;99233.59;5108495;28;20559;-58
2023/08/10 03:57:49;;;;;;;2.27;1.53;;;;;;;18.33;100.00;99232.50;5108305;28;20211;-58
2023/08/10 04:00:17;;;;;;;2.30;1.53;;;;;;;18.33;100.00;99232.50;5108571;28;20247;-58
2023/08/10 04:02:44;;;;;;;2.43;1.60;;;;;;;18.32;100.00;99224.88;5108526;28;20204;-58
2023/08/10 04:05:11;;;;;;;1.77;1.40;;;;;;;18.36;100.00;99235.75;5108284;28;20197;-57
2023/08/10 04:07:39;;;;;;;2.20;1.60;;;;;;;18.34;100.00;99238.47;5108374;28;20200;-58
2023/08/10 04:10:07;;;;;;;4.90;2.00;;;;;;;18.29;100.00;99236.34;5108198;28;20194;-58
2023/08/10 04:12:34;;;;;;;2.00;1.70;;;;;;;18.28;100.00;99250.25;5108299;28;20200;-57
2023/08/10 04:15:03;;;;;;;2.17;1.67;;;;;;;18.26;100.00;99247.00;5109214;28;20211;-58
2023/08/10 04:17:30;;;;;;;2.67;1.77;;;;;;;18.28;100.00;99245.09;5112933;28;20215;-57
2023/08/10 04:19:57;;;;;;;2.97;1.73;;;;;;;18.29;100.00;99251.88;5112452;28;20731;-57
2023/08/10 04:22:25;;;;;;;2.10;1.73;;;;;;;18.36;100.00;99253.88;5112719;28;20206;-57
2023/08/10 04:24:52;;;;;;;2.63;1.80;;;;;;;18.39;100.00;99256.13;5112377;28;20205;-57
2023/08/10 04:27:19;;;;;;;2.80;2.00;;;;;;;18.41;100.00;99254.97;5112314;28;20309;-57
2023/08/10 04:29:46;;;;;;;2.53;1.73;;;;;;;18.45;100.00;99261.50;5112381;28;20201;-58
2023/08/10 04:32:15;;;;;;;3.07;1.70;;;;;;;18.48;100.00;99255.19;5112215;28;20198;-58
2023/08/10 04:34:42;;;;;;;2.87;2.00;;;;;;;18.52;100.00;99257.28;5112206;28;20284;-57
2023/08/10 04:37:09;;;;;;;3.53;1.90;;;;;;;18.61;100.00;99258.13;5112489;28;20196;-58
2023/08/10 04:39:36;;;;;;;2.63;1.70;;;;;;;18.67;100.00;99267.03;5112059;28;20226;-57
2023/08/10 04:42:03;;;;;;;2.60;2.10;;;;;;;18.64;100.00;99260.41;5112255;28;20199;-58
2023/08/10 04:44:30;;;;;;;1.83;1.67;;;;;;;18.65;100.00;99262.03;5112216;28;20196;-58
2023/08/10 04:46:57;;;;;;;3.67;1.90;;;;;;;18.68;100.00;99266.09;5112451;28;20206;-57
2023/08/10 04:49:27;;;;;;;1.97;1.70;;;;;;;18.72;100.00;99263.00;5112056;28;20194;-57
2023/08/10 04:51:54;;;;;;;2.10;1.70;;;;;;;18.74;100.00;99268.88;5112536;28;20224;-57
2023/08/10 04:54:22;;;;;;;1.93;1.70;;;;;;;18.77;100.00;99273.75;5111764;28;20307;-57
2023/08/10 04:56:50;;;;;;;2.00;1.70;;;;;;;18.77;100.00;99271.16;5111659;27;20536;-57
2023/08/10 04:59:17;;;;;;;3.20;1.80;;;;;;;18.77;100.00;99271.16;5111473;28;20229;-57
2023/08/10 05:01:44;;;;;;;2.53;2.00;;;;;;;18.80;100.00;99270.03;5111599;28;20216;-58
2023/08/10 05:04:10;;;;;;;3.57;1.90;;;;;;;18.87;100.00;99272.78;5111521;28;20221;-57
2023/08/10 05:06:39;;;;;;;2.00;1.70;;;;;;;18.81;100.00;99276.00;5111367;28;20201;-58
2023/08/10 05:09:06;;;;;;;1.97;1.70;;;;;;;18.81;100.00;99276.00;5111672;28;20201;-57
2023/08/10 05:11:32;;;;;;;2.43;1.83;;;;;;;18.85;100.00;99285.06;5111626;28;20197;-57
2023/08/10 05:13:59;;;;;;;2.53;1.83;;;;;;;18.86;100.00;99289.31;5111622;28;20194;-58
2023/08/10 05:16:26;;;;;;;2.20;1.60;;;;;;;19.00;100.00;99293.88;5111907;28;20216;-58
2023/08/10 05:18:53;;;;;;;2.90;2.07;;;;;;;19.25;100.00;99288.69;5111171;28;20228;-58
2023/08/10 05:21:20;;;;;;;1.80;1.70;;;;;;;19.50;100.00;99298.09;5111442;28;20210;-58
2023/08/10 05:23:48;;;;;;;3.30;1.80;;;;;;;19.68;100.00;99298.75;5111509;28;20198;-58
2023/08/10 05:26:15;;;;;;;2.13;1.37;;;;;;;19.88;100.00;99301.00;5110979;28;20222;-57
2023/08/10 05:28:42;;;;;;;2.47;1.77;;;;;;;20.07;100.00;99303.22;5111138;28;20198;-58
2023/08/10 05:31:09;;;;;;;2.30;1.60;;;;;;;20.29;100.00;99303.47;5111099;28;20210;-57
2023/08/10 05:33:36;;;;;;;1.90;1.47;;;;;;;20.52;100.00;99304.38;5110889;28;20199;-57
2023/08/10 05:36:03;;;;;;;2.10;1.70;;;;;;;20.70;100.00;99311.13;5111060;28;20203;-58
2023/08/10 05:38:30;;;;;;;2.23;1.50;;;;;;;20.93;100.00;99311.97;5111085;28;20204;-58
2023/08/10 05:40:58;;;;;;;3.07;1.57;;;;;;;21.13;97.21;99317.53;5110998;28;20236;-58
2023/08/10 05:43:25;;;;;;;2.27;1.63;;;;;;;21.36;96.98;99322.75;5111039;28;20578;-58
2023/08/10 05:45:51;;;;;;;1.50;1.30;;;;;;;21.55;94.46;99315.44;5110890;28;20698;-58
2023/08/10 05:48:19;;;;;;;2.20;1.60;;;;;;;21.75;95.36;99318.34;5110919;28;20738;-58
2023/08/10 05:50:46;;;;;;;1.80;1.20;;;;;;;21.87;91.44;99320.31;5110756;28;20211;-58
2023/08/10 05:53:12;;;;;;;1.70;1.50;;;;;;;22.09;94.10;99323.84;5110980;28;20208;-58
2023/08/10 05:55:39;;;;;;;2.10;1.47;;;;;;;22.30;86.66;99330.16;5110724;28;20209;-58
2023/08/10 05:58:07;;;;;;;1.67;1.40;;;;;;;22.45;85.76;99332.75;5110560;28;20598;-58
2023/08/10 06:00:36;;;;;;;2.00;1.50;;;;;;;22.70;87.96;99334.06;5110716;28;20225;-58
2023/08/10 06:03:03;;;;;;;2.40;1.67;;;;;;;22.73;83.96;99341.53;5110499;28;20201;-58
2023/08/10 06:05:32;;;;;;;2.10;1.60;;;;;;;22.49;83.39;99340.03;5110726;28;20216;-58
2023/08/10 06:07:59;;;;;;;2.70;1.67;;;;;;;22.27;85.75;99331.34;5110367;27;20261;-58
2023/08/10 06:10:26;;;;;;;1.57;1.43;;;;;;;22.52;88.65;99328.47;5110505;27;20414;-58
2023/08/10 06:12:53;;;;;;;1.80;1.50;;;;;;;22.75;87.68;99334.34;5110222;28;20193;-59
2023/08/10 06:15:21;;;;;;;1.50;1.30;;;;;;;23.03;82.56;99344.09;5110792;28;20205;-59
2023/08/10 06:17:48;;;;;;;1.63;1.40;;;;;;;23.29;81.73;99340.94;5110214;28;20293;-59
2023/08/10 06:20:21;;;;;;;1.60;1.30;;;;;;;23.49;81.75;99343.72;5110033;28;20722;-60
2023/08/10 06:22:49;;;;;;;2.33;1.48;;;;;;;23.65;79.07;99340.84;5110177;28;20201;-60
2023/08/10 06:25:17;;;;;;;2.05;1.60;;;;;;;23.78;75.25;99339.34;5110135;28;20626;-60
2023/08/10 06:27:44;;;;;;;1.80;1.38;;;;;;;23.85;76.41;99334.97;5110171;28;20205;-60
2023/08/10 06:30:13;;;;;;;2.70;1.50;;;;;;;23.98;77.69;99347.31;5109848;28;20214;-59
2023/08/10 06:32:41;;;;;;;1.77;1.50;;;;;;;24.18;79.10;99346.44;5109714;28;20266;-59
2023/08/10 06:35:09;;;;;;;2.35;1.60;;;;;;;24.44;79.06;99345.00;5109823;28;20197;-60
2023/08/10 06:37:36;;;;;;;1.90;1.60;;;;;;;24.70;78.34;99353.97;5109311;28;20206;-59
2023/08/10 06:40:08;;;;;;;1.45;1.35;;;;;;;24.86;74.85;99358.81;5110052;28;20241;-59
2023/08/10 06:42:35;;;;;;;3.60;1.50;;;;;;;24.98;70.92;99359.06;5109916;28;20266;-60
2023/08/10 06:45:02;;;;;;;1.83;1.20;;;;;;;24.96;66.31;99363.66;5109797;28;20194;-59
2023/08/10 06:47:29;;;;;;;1.60;1.50;;;;;;;24.81;64.72;99371.66;5109732;28;20250;-62
2023/08/10 06:49:57;;;;;;;8.18;1.48;;;;;;;24.99;73.30;99364.09;5109641;28;20636;-59
2023/08/10 06:52:24;;;;;;;1.70;1.35;;;;;;;25.07;62.45;99374.38;5109509;28;20737;-59
2023/08/10 06:54:52;;;;;;;2.28;1.40;;;;;;;25.06;61.18;99375.38;5109455;28;20209;-60
2023/08/10 06:57:19;;;;;;;1.60;1.50;;;;;;;25.17;66.66;99374.03;5109262;28;20751;-60
2023/08/10 06:59:46;;;;;;;1.90;1.27;;;;;;;25.04;61.90;99376.56;5109344;28;20268;-59
2023/08/10 07:02:13;;;;;;;1.48;1.38;;;;;;;24.89;61.73;99363.66;5109403;28;20208;-60
2023/08/10 07:04:40;;;;;;;1.55;1.40;;;;;;;25.04;64.81;99369.53;5109185;28;20205;-60
2023/08/10 07:07:09;;;;;;;1.60;1.30;;;;;;;25.19;65.03;99374.66;5108940;28;20210;-60
2023/08/10 07:09:37;;;;;;;1.90;1.50;;;;;;;25.24;61.32;99384.50;5109140;28;20212;-60
2023/08/10 07:12:04;;;;;;;1.50;1.40;;;;;;;25.35;64.43;99376.06;5109250;28;20201;-59
2023/08/10 07:14:31;;;;;;;2.22;1.50;;;;;;;25.52;65.66;99379.91;5109254;28;20198;-59
2023/08/10 07:16:58;;;;;;;2.10;1.58;;;;;;;25.59;61.34;99373.88;5108941;28;20204;-59
2023/08/10 07:19:25;;;;;;;1.42;1.30;;;;;;;25.72;61.95;99379.91;5108999;28;20193;-59
2023/08/10 07:21:55;;;;;;;1.90;1.48;;;;;;;25.78;63.49;99378.31;5109185;28;20197;-59
2023/08/10 07:24:23;;;;;;;1.67;1.48;;;;;;;26.03;64.71;99386.34;5108925;28;20204;-59
2023/08/10 07:26:51;;;;;;;2.63;1.40;;;;;;;26.09;59.56;99384.72;5108878;28;20202;-59
2023/08/10 07:29:18;;;;;;;1.60;1.40;;;;;;;25.87;55.43;99387.59;5109127;28;20585;-59
2023/08/10 07:31:45;;;;;;;1.60;1.40;;;;;;;25.97;57.61;99387.16;5108801;28;20197;-59
2023/08/10 07:34:12;;;;;;;1.45;1.33;;;;;;;26.09;56.25;99390.81;5109000;28;20197;-59
2023/08/10 07:36:39;;;;;;;2.20;1.70;;;;;;;26.15;58.05;99383.91;5108630;28;20202;-59
2023/08/10 07:39:06;;;;;;;1.33;1.23;;;;;;;26.19;58.67;99383.31;5108582;28;20201;-59
2023/08/10 07:41:35;;;;;;;1.65;1.55;;;;;;;26.35;57.74;99378.63;5108818;28;20333;-60
2023/08/10 07:44:01;;;;;;;1.92;1.70;;;;;;;26.42;56.75;99382.84;5108604;28;20209;-60
2023/08/10 07:46:30;;;;;;;1.60;1.40;;;;;;;26.58;58.00;99388.66;5108889;27;20198;-60
2023/08/10 07:48:57;;;;;;;1.45;1.35;;;;;;;26.57;58.74;99381.81;5108513;28;20202;-60
2023/08/10 07:51:24;;;;;;;1.25;1.15;;;;;;;26.64;60.61;99386.00;5108375;28;20201;-60
2023/08/10 07:53:50;;;;;;;1.70;1.48;;;;;;;26.83;58.99;99381.72;5108680;28;20216;-60
2023/08/10 07:56:17;;;;;;;2.53;1.80;;;;;;;26.99;58.29;99390.09;5108946;28;20417;-59
2023/08/10 07:58:45;;;;;;;1.95;1.55;;;;;;;26.99;56.65;99390.09;5108453;28;20508;-60
2023/08/10 08:01:11;;;;;;;1.92;1.50;;;;;;;27.10;59.91;99390.25;5108406;28;20224;-59
2023/08/10 08:03:38;;;;;;;1.65;1.48;;;;;;;27.15;59.55;99389.66;5108363;28;20607;-59
2023/08/10 08:06:05;;;;;;;3.78;1.70;;;;;;;27.27;58.00;99393.19;5108234;28;20611;-60
2023/08/10 08:08:32;;;;;;;2.15;1.70;;;;;;;27.52;60.56;99387.19;5108380;28;20713;-60
2023/08/10 08:10:59;;;;;;;2.03;1.75;;;;;;;27.36;58.43;99391.13;5108369;28;20200;-59
2023/08/10 08:13:25;;;;;;;1.70;1.50;;;;;;;27.46;59.11;99385.38;5108315;28;20593;-59
2023/08/10 08:15:54;;;;;;;1.73;1.52;;;;;;;27.65;58.45;99388.91;5108218;28;20701;-60
2023/08/10 08:18:44;;;;;;;2.50;2.08;;;;;;;27.62;58.79;99384.88;5108480;28;20578;-60
2023/08/10 08:21:13;;;;;;;10.13;5.88;;;;;;;27.83;56.49;99382.91;5108022;28;20765;-59
2023/08/10 08:23:39;;;;;;;1.80;1.70;;;;;;;27.90;57.06;99383.66;5108043;28;20201;-59
2023/08/10 08:26:06;;;;;;;2.83;1.80;;;;;;;27.75;55.28;99390.03;5108116;28;20193;-60
2023/08/10 08:28:33;;;;;;;2.22;1.88;;;;;;;27.86;58.48;99382.47;5108432;28;20225;-59
2023/08/10 08:31:02;;;;;;;2.30;1.77;;;;;;;27.80;55.79;99388.59;5108075;28;20223;-60
2023/08/10 08:33:28;;;;;;;1.90;1.70;;;;;;;27.86;56.55;99390.34;5108038;28;20202;-60
2023/08/10 08:35:55;;;;;;;3.15;2.00;;;;;;;27.82;56.15;99391.81;5108105;28;20197;-60
2023/08/10 08:38:23;;;;;;;2.70;1.88;;;;;;;27.74;54.49;99383.16;5108077;28;20449;-61
2023/08/10 08:40:50;;;;;;;2.53;1.83;;;;;;;27.86;57.75;99390.34;5108396;28;20317;-60
2023/08/10 08:43:18;;;;;;;3.15;1.90;;;;;;;27.82;53.28;99386.56;5107707;28;20234;-60
2023/08/10 08:45:46;;;;;;;6.70;4.45;;;;;;;27.66;57.33;99380.78;5108193;28;20215;-60
2023/08/10 08:48:17;;;;;;;1.90;1.70;;;;;;;27.46;54.28;99388.84;5107773;28;20217;-60
2023/08/10 08:50:46;;;;;;;1.95;1.75;;;;;;;27.64;56.34;99388.09;5107976;28;20209;-60
2023/08/10 08:53:13;;;;;;;2.72;1.90;;;;;;;27.73;54.94;99391.25;5107850;28;20258;-60
2023/08/10 08:55:41;;;;;;;2.08;1.88;;;;;;;27.77;57.32;99393.22;5108313;28;20200;-60
2023/08/10 08:58:08;;;;;;;2.45;1.85;;;;;;;27.96;54.50;99388.06;5107672;28;20687;-60
2023/08/10 09:00:35;;;;;;;2.35;2.10;;;;;;;27.98;53.50;99388.63;5108199;28;20232;-60
2023/08/10 09:03:02;;;;;;;2.08;1.80;;;;;;;27.91;52.12;99388.69;5111683;28;20201;-60
2023/08/10 09:05:31;;;;;;;2.42;2.05;;;;;;;27.90;52.72;99381.03;5111822;27;20197;-60
2023/08/10 09:07:58;;;;;;;2.28;1.92;;;;;;;28.10;55.39;99386.06;5111497;28;20231;-60
2023/08/10 09:10:25;;;;;;;2.85;2.17;;;;;;;28.02;52.60;99384.56;5111946;28;20201;-61
2023/08/10 09:12:52;;;;;;;2.40;2.10;;;;;;;27.95;53.25;99383.81;5111854;28;20207;-60
2023/08/10 09:15:19;;;;;;;2.33;2.03;;;;;;;27.99;56.17;99385.00;5111284;28;20209;-60
2023/08/10 09:17:48;;;;;;;3.00;2.10;;;;;;;27.80;52.74;99386.75;5111558;28;20197;-60
2023/08/10 09:20:20;;;;;;;2.47;2.17;;;;;;;27.71;52.32;99386.19;5111367;28;20234;-60
2023/08/10 09:22:50;;;;;;;4.38;2.20;;;;;;;27.73;53.26;99388.63;5111275;28;20603;-60
2023/08/10 09:25:17;;;;;;;2.92;2.25;;;;;;;27.72;57.39;99379.94;5111573;28;20201;-60
2023/08/10 09:27:45;;;;;;;3.83;2.30;;;;;;;28.01;57.84;99380.31;5111312;28;20689;-60
2023/08/10 09:30:12;;;;;;;2.58;2.28;;;;;;;28.24;52.57;99377.03;5111156;28;20675;-61
2023/08/10 09:32:40;;;;;;;3.17;2.70;;;;;;;28.31;54.99;99369.09;5110955;28;20217;-60
2023/08/10 09:35:13;;;;;;;2.63;2.33;;;;;;;28.31;54.80;99369.09;5111244;28;20197;-61
2023/08/10 09:37:40;;;;;;;2.42;2.13;;;;;;;28.15;55.20;99373.88;5110992;28;20578;-60
2023/08/10 09:40:11;;;;;;;2.72;2.40;;;;;;;28.11;54.28;99361.41;5110992;28;20617;-60
2023/08/10 09:42:39;;;;;;;2.88;2.40;;;;;;;28.20;54.69;99350.38;5111018;28;20262;-60
2023/08/10 09:45:09;;;;;;;3.95;2.67;;;;;;;28.30;52.03;99360.38;5110914;28;20663;-60
2023/08/10 09:47:37;;;;;;;3.60;2.42;;;;;;;28.27;52.47;99354.75;5110717;28;20719;-60
2023/08/10 09:50:06;;;;;;;3.10;2.65;;;;;;;28.25;51.73;99359.47;5110686;28;20213;-60
2023/08/10 09:52:36;;;;;;;3.22;2.55;;;;;;;28.15;55.59;99358.13;5110644;28;20238;-60
2023/08/10 09:55:05;;;;;;;3.05;2.70;;;;;;;28.28;55.70;99356.38;5110644;28;20205;-60
2023/08/10 09:57:35;;;;;;;3.78;2.53;;;;;;;28.50;57.65;99349.66;5110715;28;20694;-60
2023/08/10 10:00:04;;;;;;;3.30;2.60;;;;;;;28.56;53.72;99354.03;5110445;28;20698;-60
2023/08/10 10:02:31;;;;;;;3.78;2.50;;;;;;;28.47;51.79;99350.09;5110771;28;20197;-60
2023/08/10 10:04:58;;;;;;;3.30;2.40;;;;;;;28.33;53.95;99346.00;5110657;28;20247;-60
2023/08/10 10:07:28;;;;;;;3.17;2.60;;;;;;;28.34;52.88;99342.34;5110427;28;20197;-61
2023/08/10 10:09:58;;;;;;;3.47;2.85;;;;;;;28.28;47.80;99356.38;5110394;28;20224;-60
2023/08/10 10:12:25;;;;;;;3.47;2.75;;;;;;;28.18;50.08;99347.16;5109600;28;20202;-60
2023/08/10 10:14:57;;;;;;;4.20;2.67;;;;;;;27.98;49.14;99357.09;5111019;28;20198;-60
2023/08/10 10:17:24;;;;;;;3.67;3.00;;;;;;;28.09;49.79;99353.72;5110402;28;20310;-60
2023/08/10 10:19:52;;;;;;;4.18;2.75;;;;;;;28.18;49.32;99341.91;5110338;28;20621;-60
2023/08/10 10:22:21;;;;;;;3.20;2.67;;;;;;;28.24;49.01;99344.69;5109985;28;20628;-60
2023/08/10 10:24:49;;;;;;;3.53;2.90;;;;;;;28.24;48.58;99344.69;5109956;28;20208;-60
2023/08/10 10:27:16;;;;;;;3.50;2.72;;;;;;;28.25;48.19;99341.84;5110312;28;20190;-60
2023/08/10 10:29:51;;;;;;;3.65;2.80;;;;;;;28.07;46.92;99334.78;5109947;28;20202;-60
2023/08/10 10:32:21;;;;;;;4.53;2.70;;;;;;;28.09;47.09;99337.16;5109242;28;20587;-60
2023/08/10 10:34:49;;;;;;;3.63;2.72;;;;;;;27.88;50.42;99338.41;5109003;28;20215;-60
2023/08/10 10:37:19;;;;;;;3.50;2.97;;;;;;;27.99;47.88;99329.78;5109771;28;20693;-60
2023/08/10 10:39:51;;;;;;;3.70;2.88;;;;;;;27.86;47.91;99337.81;5109841;28;20197;-60
2023/08/10 10:42:19;;;;;;;3.10;2.80;;;;;;;28.10;48.27;99323.00;5109556;28;20229;-60
2023/08/10 10:45:00;;;;;;;4.97;2.58;;;;;;;28.13;47.86;99318.13;5110092;28;20198;-60
2023/08/10 10:47:38;;;;;;;4.28;2.75;;;;;;;28.20;50.89;99316.19;5109999;28;20201;-60
2023/08/10 10:50:16;;;;;;;3.30;2.63;;;;;;;28.26;53.15;99311.09;5109618;28;20212;-60
2023/08/10 10:52:54;;;;;;;3.58;2.97;;;;;;;28.26;48.98;99305.84;5109489;28;20674;-60
2023/08/10 10:55:21;;;;;;;3.25;2.55;;;;;;;28.39;50.88;99310.91;5109556;28;20197;-60
2023/08/10 10:57:50;;;;;;;3.20;2.60;;;;;;;28.48;51.18;99303.56;5109448;28;20206;-60
2023/08/10 11:00:18;;;;;;;3.10;2.65;;;;;;;28.51;46.40;99309.19;5109608;28;20205;-61
2023/08/10 11:02:47;;;;;;;3.40;2.63;;;;;;;28.61;48.66;99303.41;5109366;28;20236;-60
2023/08/10 11:05:14;;;;;;;3.50;2.63;;;;;;;28.59;50.58;99305.44;5109398;28;20205;-60
2023/08/10 11:07:42;;;;;;;3.13;2.83;;;;;;;28.62;46.60;99311.06;5109194;28;20208;-60
2023/08/10 11:10:10;;;;;;;3.40;2.72;;;;;;;28.63;46.71;99312.66;5109374;28;20198;-60
2023/08/10 11:12:38;;;;;;;3.35;2.67;;;;;;;28.77;47.74;99307.22;5109271;28;20197;-61
2023/08/10 11:15:08;;;;;;;3.13;2.55;;;;;;;28.75;48.27;99304.03;5109209;28;20258;-61
2023/08/10 11:17:35;;;;;;;3.38;2.78;;;;;;;28.65;44.85;99308.00;5109133;28;20201;-61
2023/08/10 11:20:09;;;;;;;4.38;2.45;;;;;;;28.36;43.10;99314.00;5109083;28;20200;-60
2023/08/10 11:22:38;;;;;;;2.88;2.58;;;;;;;28.36;44.67;99300.84;5109237;28;20232;-60
2023/08/10 11:25:10;;;;;;;2.63;2.38;;;;;;;28.53;46.55;99299.22;5108765;28;20624;-60
2023/08/10 11:27:37;;;;;;;3.55;2.38;;;;;;;28.67;47.21;99297.22;5108787;28;20666;-61
2023/08/10 11:30:05;;;;;;;4.15;2.40;;;;;;;28.70;45.18;99301.25;5109090;28;20198;-60
2023/08/10 11:32:32;;;;;;;3.20;2.60;;;;;;;28.65;43.78;99305.38;5108765;28;20201;-60
2023/08/10 11:34:59;;;;;;;4.45;2.45;;;;;;;28.75;46.65;99298.75;5108886;28;20847;-60